createdAt,value
2019-03-27T00:01:26.896Z,3.97
2019-03-27T00:03:52.676Z,4.33
2019-03-27T00:06:18.467Z,4.20
2019-03-27T00:08:44.254Z,4.50
2019-03-27T00:11:10.047Z,4.07
2019-03-27T00:13:35.824Z,4.50
2019-03-27T00:16:01.612Z,4.97
2019-03-27T00:18:27.396Z,4.33
2019-03-27T00:20:53.321Z,4.27
2019-03-27T00:23:19.111Z,4.30
2019-03-27T00:25:45.015Z,4.67
2019-03-27T00:28:10.798Z,4.67
2019-03-27T00:30:36.597Z,4.73
2019-03-27T00:33:02.373Z,5.00
2019-03-27T00:35:28.160Z,5.13
2019-03-27T00:37:53.940Z,4.60
2019-03-27T00:40:19.723Z,5.00
2019-03-27T00:42:45.520Z,4.83
2019-03-27T00:45:11.420Z,4.37
2019-03-27T00:47:37.198Z,4.70
2019-03-27T00:50:07.376Z,4.90
2019-03-27T00:52:33.170Z,4.30
2019-03-27T00:54:58.954Z,4.67
2019-03-27T00:57:24.749Z,4.57
2019-03-27T00:59:50.521Z,4.60
2019-03-27T01:02:16.374Z,4.53
2019-03-27T01:04:42.091Z,4.60
2019-03-27T01:07:07.886Z,4.73
2019-03-27T01:09:33.668Z,4.33
2019-03-27T01:11:59.659Z,4.67
2019-03-27T01:14:25.444Z,5.00
2019-03-27T01:16:51.240Z,5.07
2019-03-27T01:19:17.018Z,5.37
2019-03-27T01:21:42.808Z,5.20
2019-03-27T01:24:08.599Z,5.87
2019-03-27T01:26:34.395Z,4.33
2019-03-27T01:29:00.173Z,5.30
2019-03-27T01:31:25.963Z,5.77
2019-03-27T01:33:51.741Z,5.13
2019-03-27T01:36:17.536Z,5.10
2019-03-27T01:38:43.320Z,5.13
2019-03-27T01:41:09.103Z,4.97
2019-03-27T01:43:34.895Z,6.17
2019-03-27T01:46:00.677Z,4.97
2019-03-27T01:48:26.464Z,5.80
2019-03-27T01:50:52.259Z,5.03
2019-03-27T01:53:18.060Z,5.63
2019-03-27T01:55:43.834Z,5.10
2019-03-27T01:58:09.632Z,5.47
2019-03-27T02:00:35.413Z,5.30
2019-03-27T02:03:01.203Z,5.13
2019-03-27T02:05:26.989Z,4.80
2019-03-27T02:07:52.797Z,4.67
2019-03-27T02:10:18.571Z,5.33
2019-03-27T02:12:44.361Z,4.53
2019-03-27T02:15:10.455Z,5.13
2019-03-27T02:17:36.252Z,5.10
2019-03-27T02:20:03.835Z,4.40
2019-03-27T02:22:29.650Z,4.87
2019-03-27T02:24:55.424Z,4.80
2019-03-27T02:27:21.211Z,4.97
2019-03-27T02:29:46.992Z,4.53
2019-03-27T02:32:12.785Z,4.50
2019-03-27T02:34:38.560Z,4.67
2019-03-27T02:37:04.363Z,4.70
2019-03-27T02:39:30.138Z,4.73
2019-03-27T02:41:55.937Z,5.03
2019-03-27T02:44:21.705Z,5.00
2019-03-27T02:46:47.475Z,4.73
2019-03-27T02:49:13.269Z,4.70
2019-03-27T02:51:39.049Z,4.87
2019-03-27T02:54:04.841Z,5.10
2019-03-27T02:56:30.619Z,4.57
2019-03-27T02:58:56.416Z,4.90
2019-03-27T03:01:22.188Z,4.90
2019-03-27T03:03:47.980Z,4.57
2019-03-27T03:06:13.759Z,4.87
2019-03-27T03:08:39.547Z,5.40
2019-03-27T03:11:05.325Z,4.87
2019-03-27T03:13:31.116Z,5.33
2019-03-27T03:15:56.899Z,5.17
2019-03-27T03:18:22.682Z,5.63
2019-03-27T03:20:48.455Z,5.20
2019-03-27T03:23:14.267Z,5.47
2019-03-27T03:25:40.048Z,5.10
2019-03-27T03:28:05.847Z,5.30
2019-03-27T03:30:31.633Z,5.83
2019-03-27T03:32:57.446Z,5.10
2019-03-27T03:35:23.222Z,4.97
2019-03-27T03:37:49.006Z,5.80
2019-03-27T03:40:15.194Z,5.30
2019-03-27T03:42:41.073Z,5.93
2019-03-27T03:45:06.969Z,4.60
2019-03-27T03:47:32.750Z,5.27
2019-03-27T03:49:58.553Z,5.30
2019-03-27T03:52:24.338Z,5.57
2019-03-27T03:54:51.523Z,4.93
2019-03-27T03:57:18.210Z,5.27
2019-03-27T03:59:44.107Z,5.63
2019-03-27T04:02:10.991Z,5.57
2019-03-27T04:04:38.688Z,5.07
2019-03-27T04:07:04.476Z,5.90
2019-03-27T04:09:30.263Z,5.23
2019-03-27T04:11:56.047Z,6.17
2019-03-27T04:14:21.849Z,5.47
2019-03-27T04:16:47.635Z,4.77
2019-03-27T04:19:13.431Z,5.67
2019-03-27T04:21:39.226Z,5.63
2019-03-27T04:24:05.043Z,5.53
2019-03-27T04:26:33.525Z,5.57
2019-03-27T04:28:58.515Z,6.30
2019-03-27T04:31:24.322Z,6.03
2019-03-27T04:33:50.108Z,5.77
2019-03-27T04:36:15.905Z,5.50
2019-03-27T04:38:41.696Z,5.50
2019-03-27T04:41:07.462Z,5.57
2019-03-27T04:43:33.244Z,5.30
2019-03-27T04:45:59.035Z,6.33
2019-03-27T04:48:24.812Z,5.67
2019-03-27T04:50:50.603Z,5.53
2019-03-27T04:53:16.394Z,6.10
2019-03-27T04:55:42.178Z,6.03
2019-03-27T04:58:07.967Z,6.80
2019-03-27T05:00:33.758Z,5.60
2019-03-27T05:02:59.538Z,5.93
2019-03-27T05:05:25.327Z,6.27
2019-03-27T05:07:51.114Z,6.43
2019-03-27T05:10:16.903Z,7.07
2019-03-27T05:12:42.676Z,7.07
2019-03-27T05:15:08.550Z,6.60
2019-03-27T05:17:45.210Z,7.10
2019-03-27T05:20:04.827Z,6.93
2019-03-27T05:22:30.644Z,6.57
2019-03-27T05:24:56.427Z,7.00
2019-03-27T05:27:22.227Z,7.03
2019-03-27T05:29:48.002Z,7.03
2019-03-27T05:32:13.789Z,6.77
2019-03-27T05:34:39.574Z,5.93
2019-03-27T05:37:05.378Z,6.83
2019-03-27T05:39:31.150Z,6.70
2019-03-27T05:41:56.947Z,6.90
2019-03-27T05:44:22.729Z,7.03
2019-03-27T05:46:48.518Z,6.27
2019-03-27T05:49:14.295Z,6.67
2019-03-27T05:51:40.083Z,6.10
2019-03-27T05:54:05.868Z,6.73
2019-03-27T05:56:31.663Z,6.27
2019-03-27T05:58:57.446Z,6.70
2019-03-27T06:01:23.251Z,6.53
2019-03-27T06:03:49.030Z,6.63
2019-03-27T06:06:14.850Z,6.53
2019-03-27T06:08:40.628Z,6.00
2019-03-27T06:11:06.415Z,5.87
2019-03-27T06:13:32.214Z,6.43
2019-03-27T06:15:57.992Z,6.00
2019-03-27T06:18:23.788Z,5.93
2019-03-27T06:20:49.573Z,5.50
2019-03-27T06:23:15.375Z,5.10
2019-03-27T06:25:41.151Z,4.37
2019-03-27T06:28:06.948Z,4.40
2019-03-27T06:30:32.724Z,4.90
2019-03-27T06:32:58.519Z,4.40
2019-03-27T06:35:24.307Z,4.40
2019-03-27T06:37:50.109Z,4.30
2019-03-27T06:40:15.888Z,4.07
2019-03-27T06:42:41.677Z,3.70
2019-03-27T06:45:08.102Z,3.73
2019-03-27T06:47:33.861Z,4.27
2019-03-27T06:49:59.637Z,3.63
2019-03-27T06:52:25.431Z,4.17
2019-03-27T06:54:51.212Z,3.47
2019-03-27T06:57:17.006Z,3.67
2019-03-27T06:59:42.787Z,3.53
2019-03-27T07:02:08.670Z,4.23
2019-03-27T07:04:34.486Z,3.87
2019-03-27T07:07:00.260Z,3.57
2019-03-27T07:09:26.057Z,2.83
2019-03-27T07:11:51.839Z,3.50
2019-03-27T07:14:17.631Z,3.30
2019-03-27T07:16:43.408Z,3.57
2019-03-27T07:19:09.210Z,3.20
2019-03-27T07:21:34.994Z,2.73
2019-03-27T07:24:00.805Z,3.70
2019-03-27T07:26:26.581Z,3.03
2019-03-27T07:28:52.380Z,2.63
2019-03-27T07:31:18.154Z,2.60
2019-03-27T07:33:43.958Z,3.10
2019-03-27T07:36:09.740Z,2.80
2019-03-27T07:38:35.529Z,3.00
2019-03-27T07:41:01.320Z,3.00
2019-03-27T07:43:27.119Z,2.77
2019-03-27T07:45:52.904Z,3.10
2019-03-27T07:48:18.685Z,2.80
2019-03-27T07:50:44.476Z,2.77
2019-03-27T07:53:10.266Z,3.03
2019-03-27T07:55:36.093Z,3.07
2019-03-27T07:58:01.867Z,3.50
2019-03-27T08:00:27.667Z,3.47
2019-03-27T08:02:53.454Z,3.37
2019-03-27T08:05:19.269Z,3.73
2019-03-27T08:07:45.036Z,3.00
2019-03-27T08:10:10.934Z,3.60
2019-03-27T08:12:36.715Z,3.27
2019-03-27T08:15:06.013Z,3.50
2019-03-27T08:17:32.103Z,3.67
2019-03-27T08:19:57.910Z,3.90
2019-03-27T08:22:23.708Z,2.83
2019-03-27T08:24:49.495Z,3.23
2019-03-27T08:27:15.293Z,3.17
2019-03-27T08:29:41.110Z,3.40
2019-03-27T08:32:06.887Z,2.90
2019-03-27T08:34:32.699Z,3.53
2019-03-27T08:36:58.489Z,3.50
2019-03-27T08:39:24.266Z,3.50
2019-03-27T08:41:50.064Z,3.53
2019-03-27T08:44:15.841Z,3.10
2019-03-27T08:46:41.643Z,3.27
2019-03-27T08:49:20.796Z,3.27
2019-03-27T08:51:35.114Z,3.23
2019-03-27T08:54:00.905Z,3.13
2019-03-27T08:56:26.710Z,2.90
2019-03-27T08:58:52.592Z,3.03
2019-03-27T09:01:18.491Z,3.20
2019-03-27T09:03:44.264Z,3.17
2019-03-27T09:06:10.051Z,3.37
2019-03-27T09:08:35.836Z,3.17
2019-03-27T09:11:04.479Z,3.43
2019-03-27T09:13:29.312Z,3.30
2019-03-27T09:15:55.102Z,3.00
2019-03-27T09:18:20.956Z,2.83
2019-03-27T09:20:46.810Z,3.73
2019-03-27T09:23:12.603Z,3.73
2019-03-27T09:25:38.398Z,4.07
2019-03-27T09:28:04.298Z,3.90
2019-03-27T09:30:30.197Z,4.40
2019-03-27T09:32:55.988Z,3.60
2019-03-27T09:35:21.776Z,3.90
2019-03-27T09:37:47.569Z,3.33
2019-03-27T09:40:15.059Z,3.30
2019-03-27T09:42:40.867Z,3.43
2019-03-27T09:45:07.645Z,3.50
2019-03-27T09:47:34.785Z,3.60
2019-03-27T09:50:00.692Z,3.93
2019-03-27T09:52:26.491Z,3.27
2019-03-27T09:54:52.268Z,3.23
2019-03-27T09:57:18.072Z,3.60
2019-03-27T09:59:43.851Z,3.30
2019-03-27T10:02:09.652Z,3.17
2019-03-27T10:04:35.437Z,3.03
2019-03-27T10:07:01.318Z,3.47
2019-03-27T10:09:27.123Z,2.83
2019-03-27T10:11:52.911Z,3.27
2019-03-27T10:14:18.702Z,2.97
2019-03-27T10:16:44.483Z,3.13
2019-03-27T10:19:10.280Z,2.77
2019-03-27T10:21:36.058Z,2.80
2019-03-27T10:24:01.871Z,2.60
2019-03-27T10:26:27.652Z,3.00
2019-03-27T10:28:53.455Z,3.00
2019-03-27T10:31:19.468Z,3.40
2019-03-27T10:33:45.277Z,3.07
2019-03-27T10:36:11.061Z,2.70
2019-03-27T10:38:36.860Z,2.80
2019-03-27T10:41:02.881Z,2.60
2019-03-27T10:43:28.693Z,2.60
2019-03-27T10:45:54.466Z,2.87
2019-03-27T10:48:20.267Z,2.40
2019-03-27T10:50:46.110Z,2.57
2019-03-27T10:53:11.895Z,2.57
2019-03-27T10:55:37.997Z,3.43
2019-03-27T10:58:03.849Z,2.90
2019-03-27T11:00:29.637Z,2.80
2019-03-27T11:02:55.415Z,2.63
2019-03-27T11:05:21.218Z,2.80
2019-03-27T11:07:47.057Z,2.83
2019-03-27T11:10:12.936Z,2.80
2019-03-27T11:12:38.767Z,3.07
2019-03-27T11:15:08.046Z,2.67
2019-03-27T11:17:33.837Z,3.10
2019-03-27T11:19:59.636Z,3.00
2019-03-27T11:22:25.427Z,3.70
2019-03-27T11:24:51.230Z,3.53
2019-03-27T11:27:17.018Z,3.50
2019-03-27T11:29:42.813Z,3.77
2019-03-27T11:32:08.603Z,3.57
2019-03-27T11:34:34.391Z,4.03
2019-03-27T11:37:00.179Z,3.80
2019-03-27T11:39:25.963Z,3.90
2019-03-27T11:41:51.737Z,3.67
2019-03-27T11:44:17.535Z,3.33
2019-03-27T11:46:43.320Z,3.20
2019-03-27T11:49:09.099Z,3.17
2019-03-27T11:51:34.912Z,3.20
2019-03-27T11:54:00.714Z,3.50
2019-03-27T11:56:26.470Z,3.57
2019-03-27T11:58:52.253Z,3.80
2019-03-27T12:01:18.059Z,4.07
2019-03-27T12:03:43.818Z,3.80
2019-03-27T12:06:09.624Z,4.30
2019-03-27T12:08:35.405Z,4.73
2019-03-27T12:11:01.200Z,4.17
2019-03-27T12:13:27.002Z,4.27
2019-03-27T12:15:52.803Z,4.57
2019-03-27T12:18:18.581Z,4.50
2019-03-27T12:20:57.766Z,4.70
2019-03-27T12:23:12.384Z,4.17
2019-03-27T12:25:39.002Z,5.07
2019-03-27T12:28:04.796Z,4.60
2019-03-27T12:30:30.573Z,5.67
2019-03-27T12:32:56.383Z,4.80
2019-03-27T12:35:22.159Z,5.60
2019-03-27T12:37:47.953Z,5.07
2019-03-27T12:40:13.740Z,5.07
2019-03-27T12:42:39.532Z,4.30
2019-03-27T12:45:05.425Z,4.97
2019-03-27T12:47:31.219Z,5.30
2019-03-27T12:49:57.009Z,5.03
2019-03-27T12:52:22.806Z,5.23
2019-03-27T12:54:48.584Z,4.83
2019-03-27T12:57:14.376Z,5.50
2019-03-27T12:59:40.164Z,5.00
2019-03-27T13:02:06.073Z,5.23
2019-03-27T13:04:31.853Z,4.97
2019-03-27T13:06:57.659Z,5.67
2019-03-27T13:09:23.429Z,4.40
2019-03-27T13:11:49.225Z,4.87
2019-03-27T13:14:15.010Z,5.00
2019-03-27T13:16:40.792Z,4.90
2019-03-27T13:19:06.587Z,4.80
2019-03-27T13:21:32.374Z,4.10
2019-03-27T13:23:58.179Z,4.30
2019-03-27T13:26:23.962Z,5.20
2019-03-27T13:28:49.754Z,6.00
2019-03-27T13:31:15.530Z,6.33
2019-03-27T13:33:41.318Z,4.80
2019-03-27T13:36:07.307Z,5.10
2019-03-27T13:38:33.107Z,5.07
2019-03-27T13:40:58.887Z,8.67
2019-03-27T13:43:24.678Z,6.07
2019-03-27T13:45:50.467Z,5.17
2019-03-27T13:48:16.268Z,4.37
2019-03-27T13:50:42.049Z,4.03
2019-03-27T13:53:07.844Z,4.30
2019-03-27T13:55:35.235Z,4.33
2019-03-27T13:58:01.230Z,4.47
2019-03-27T14:00:27.020Z,4.27
2019-03-27T14:02:52.799Z,4.10
2019-03-27T14:05:18.597Z,4.40
2019-03-27T14:07:44.370Z,3.97
2019-03-27T14:10:10.376Z,3.90
2019-03-27T14:12:36.157Z,4.10
2019-03-27T14:15:04.951Z,4.37
2019-03-27T14:17:30.736Z,3.60
2019-03-27T14:19:56.523Z,3.20
2019-03-27T14:22:22.326Z,3.93
2019-03-27T14:24:48.128Z,3.83
2019-03-27T14:27:13.903Z,3.60
2019-03-27T14:29:39.701Z,3.87
2019-03-27T14:32:05.484Z,4.00
2019-03-27T14:34:31.296Z,3.80
2019-03-27T14:36:57.113Z,4.13
2019-03-27T14:39:22.999Z,3.87
2019-03-27T14:41:48.789Z,3.50
2019-03-27T14:44:14.606Z,3.27
2019-03-27T14:46:40.382Z,3.90
2019-03-27T14:49:06.164Z,3.40
2019-03-27T14:51:31.956Z,3.13
2019-03-27T14:53:57.744Z,3.43
2019-03-27T14:56:23.565Z,4.70
2019-03-27T14:58:49.358Z,4.00
2019-03-27T15:01:15.141Z,4.17
2019-03-27T15:03:40.919Z,4.43
2019-03-27T15:06:06.726Z,4.83
2019-03-27T15:08:32.499Z,4.90
2019-03-27T15:10:58.288Z,5.00
2019-03-27T15:13:24.076Z,4.97
2019-03-27T15:15:49.879Z,4.90
2019-03-27T15:18:15.656Z,4.93
2019-03-27T15:20:41.443Z,5.53
2019-03-27T15:23:07.245Z,5.90
2019-03-27T15:25:33.033Z,5.00
2019-03-27T15:27:58.818Z,5.07
2019-03-27T15:30:24.769Z,4.90
2019-03-27T15:32:50.565Z,3.93
2019-03-27T15:35:16.372Z,3.27
2019-03-27T15:37:42.153Z,3.77
2019-03-27T15:40:08.047Z,4.00
2019-03-27T15:42:33.921Z,4.13
2019-03-27T15:44:59.827Z,3.37
2019-03-27T15:47:25.577Z,3.70
2019-03-27T15:49:51.363Z,3.83
2019-03-27T15:52:17.163Z,3.90
2019-03-27T15:54:42.951Z,4.27
2019-03-27T15:57:08.749Z,3.60
2019-03-27T15:59:34.529Z,3.87
2019-03-27T16:02:00.323Z,4.53
2019-03-27T16:04:26.105Z,3.83
2019-03-27T16:06:51.974Z,4.03
2019-03-27T16:09:18.772Z,3.80
2019-03-27T16:11:44.575Z,4.30
2019-03-27T16:14:10.447Z,4.20
2019-03-27T16:16:36.244Z,4.50
2019-03-27T16:19:02.023Z,4.80
2019-03-27T16:21:27.815Z,4.57
2019-03-27T16:24:05.897Z,5.20
2019-03-27T16:26:21.309Z,4.93
2019-03-27T16:28:47.123Z,4.43
2019-03-27T16:31:12.898Z,4.70
2019-03-27T16:33:38.713Z,4.33
2019-03-27T16:36:04.498Z,4.70
2019-03-27T16:38:30.291Z,6.17
2019-03-27T16:40:56.070Z,5.27
2019-03-27T16:43:21.870Z,6.20
2019-03-27T16:45:48.146Z,4.97
2019-03-27T16:48:13.944Z,6.17
2019-03-27T16:50:39.726Z,4.93
2019-03-27T16:53:05.518Z,5.90
2019-03-27T16:55:31.316Z,6.07
2019-03-27T16:57:57.112Z,6.97
2019-03-27T17:00:22.887Z,6.53
2019-03-27T17:02:48.686Z,5.10
2019-03-27T17:05:15.945Z,6.77
2019-03-27T17:07:41.856Z,5.50
2019-03-27T17:10:07.954Z,6.80
2019-03-27T17:12:33.741Z,5.77
2019-03-27T17:14:59.522Z,5.60
2019-03-27T17:17:25.311Z,5.90
2019-03-27T17:19:51.097Z,5.60
2019-03-27T17:22:19.679Z,5.40
2019-03-27T17:24:44.594Z,5.90
2019-03-27T17:27:10.491Z,5.10
2019-03-27T17:29:36.396Z,4.97
2019-03-27T17:32:02.192Z,5.70
2019-03-27T17:34:27.997Z,5.63
2019-03-27T17:36:53.769Z,5.20
2019-03-27T17:39:19.569Z,5.30
2019-03-27T17:41:45.355Z,5.80
2019-03-27T17:44:11.159Z,5.47
2019-03-27T17:46:36.938Z,5.33
2019-03-27T17:49:02.829Z,6.10
2019-03-27T17:51:28.620Z,5.10
2019-03-27T17:53:54.407Z,5.57
2019-03-27T17:56:20.207Z,6.00
2019-03-27T17:58:46.004Z,5.53
2019-03-27T18:01:11.788Z,5.27
2019-03-27T18:03:37.619Z,6.43
2019-03-27T18:06:03.504Z,6.27
2019-03-27T18:08:29.276Z,7.30
2019-03-27T18:10:55.078Z,6.23
2019-03-27T18:13:20.858Z,6.87
2019-03-27T18:15:46.646Z,7.07
2019-03-27T18:18:12.433Z,6.13
2019-03-27T18:20:38.247Z,6.97
2019-03-27T18:23:04.139Z,6.70
2019-03-27T18:25:29.930Z,7.33
2019-03-27T18:27:58.364Z,6.50
2019-03-27T18:30:23.393Z,7.30
2019-03-27T18:32:49.186Z,6.87
2019-03-27T18:35:14.989Z,6.47
2019-03-27T18:37:40.774Z,7.20
2019-03-27T18:40:06.907Z,8.07
2019-03-27T18:42:32.786Z,7.47
2019-03-27T18:44:58.631Z,7.67
2019-03-27T18:47:24.411Z,7.33
2019-03-27T18:49:50.402Z,7.07
2019-03-27T18:52:16.198Z,8.17
2019-03-27T18:54:41.980Z,7.50
2019-03-27T18:57:07.774Z,6.00
2019-03-27T18:59:33.556Z,7.00
2019-03-27T19:01:59.347Z,7.47
2019-03-27T19:04:25.345Z,7.13
2019-03-27T19:06:51.145Z,7.10
2019-03-27T19:09:16.918Z,9.10
2019-03-27T19:11:42.711Z,8.00
2019-03-27T19:14:08.492Z,8.50
2019-03-27T19:16:34.284Z,8.27
2019-03-27T19:19:00.062Z,8.60
2019-03-27T19:21:25.853Z,7.83
2019-03-27T19:23:53.136Z,8.47
2019-03-27T19:26:18.936Z,8.80
2019-03-27T19:28:44.716Z,8.37
2019-03-27T19:31:10.508Z,7.67
2019-03-27T19:33:36.288Z,8.33
2019-03-27T19:36:02.193Z,8.10
2019-03-27T19:38:27.997Z,7.90
2019-03-27T19:40:53.744Z,7.83
2019-03-27T19:43:19.539Z,8.10
2019-03-27T19:45:45.420Z,8.07
2019-03-27T19:48:11.211Z,8.13
2019-03-27T19:50:37.008Z,9.27
2019-03-27T19:53:02.901Z,7.53
2019-03-27T19:55:28.680Z,8.20
2019-03-27T19:57:54.467Z,6.97
2019-03-27T20:00:21.564Z,7.43
2019-03-27T20:02:47.378Z,8.37
2019-03-27T20:05:13.151Z,8.90
2019-03-27T20:07:38.944Z,8.10
2019-03-27T20:10:05.724Z,7.93
2019-03-27T20:12:31.521Z,8.13
2019-03-27T20:15:10.849Z,9.10
2019-03-27T20:17:25.594Z,9.13
2019-03-27T20:19:51.373Z,8.00
2019-03-27T20:22:17.178Z,9.27
2019-03-27T20:24:42.971Z,9.70
2019-03-27T20:27:09.269Z,9.50
2019-03-27T20:29:35.131Z,9.00
2019-03-27T20:32:01.237Z,9.93
2019-03-27T20:34:27.326Z,9.70
2019-03-27T20:36:53.322Z,10.73
2019-03-27T20:39:19.128Z,8.93
2019-03-27T20:41:45.087Z,9.67
2019-03-27T20:44:11.080Z,10.13
2019-03-27T20:46:37.239Z,9.87
2019-03-27T20:49:03.356Z,9.87
2019-03-27T20:51:29.141Z,9.63
2019-03-27T20:53:54.934Z,9.80
2019-03-27T20:56:20.944Z,11.03
2019-03-27T20:58:46.933Z,10.50
2019-03-27T21:01:12.844Z,11.77
2019-03-27T21:03:40.226Z,11.07
2019-03-27T21:06:06.006Z,10.80
2019-03-27T21:08:31.882Z,11.47
2019-03-27T21:10:57.659Z,10.97
2019-03-27T21:13:23.445Z,9.97
2019-03-27T21:15:49.232Z,10.47
2019-03-27T21:18:15.013Z,10.10
2019-03-27T21:20:40.808Z,10.63
2019-03-27T21:23:06.652Z,11.03
2019-03-27T21:25:32.448Z,10.03
2019-03-27T21:27:58.231Z,10.23
2019-03-27T21:30:24.032Z,10.10
2019-03-27T21:32:49.823Z,10.13
2019-03-27T21:35:15.612Z,10.40
2019-03-27T21:37:41.396Z,10.63
2019-03-27T21:40:07.493Z,10.80
2019-03-27T21:42:33.270Z,10.63
2019-03-27T21:44:59.073Z,9.93
2019-03-27T21:47:24.899Z,9.97
2019-03-27T21:49:50.764Z,9.80
2019-03-27T21:52:16.607Z,9.20
2019-03-27T21:54:42.531Z,11.30
2019-03-27T21:57:08.560Z,9.43
2019-03-27T21:59:34.686Z,10.73
2019-03-27T22:02:02.740Z,10.40
2019-03-27T22:04:28.538Z,9.97
2019-03-27T22:06:54.389Z,11.37
2019-03-27T22:09:20.583Z,9.73
2019-03-27T22:11:46.367Z,9.83
2019-03-27T22:14:12.160Z,10.30
2019-03-27T22:16:37.943Z,10.00
2019-03-27T22:19:04.017Z,11.40
2019-03-27T22:21:30.057Z,10.43
2019-03-27T22:23:55.867Z,11.20
2019-03-27T22:26:21.895Z,10.70
2019-03-27T22:28:50.756Z,8.67
2019-03-27T22:31:16.679Z,10.13
2019-03-27T22:33:42.457Z,9.87
2019-03-27T22:36:08.254Z,9.87
2019-03-27T22:38:34.675Z,11.33
2019-03-27T22:41:00.794Z,10.43
2019-03-27T22:43:28.026Z,9.67
2019-03-27T22:45:53.958Z,9.90
2019-03-27T22:48:19.891Z,10.10
2019-03-27T22:50:45.655Z,9.40
2019-03-27T22:53:11.446Z,8.73
2019-03-27T22:55:49.000Z,9.63
2019-03-27T22:58:04.978Z,9.67
2019-03-27T23:00:44.695Z,9.33
2019-03-27T23:03:18.046Z,9.40
2019-03-27T23:05:38.290Z,9.03
2019-03-27T23:08:04.065Z,8.13
2019-03-27T23:10:29.854Z,8.90
2019-03-27T23:12:55.707Z,9.17
2019-03-27T23:15:21.481Z,8.93
2019-03-27T23:17:47.280Z,9.37
2019-03-27T23:20:13.165Z,9.20
2019-03-27T23:22:38.971Z,9.40
2019-03-27T23:25:05.062Z,8.93
2019-03-27T23:27:30.851Z,10.27
2019-03-27T23:29:56.631Z,9.57
2019-03-27T23:32:22.419Z,9.63
2019-03-27T23:34:48.206Z,9.27
2019-03-27T23:37:14.054Z,9.47
2019-03-27T23:39:39.830Z,8.77
2019-03-27T23:42:05.619Z,9.83
2019-03-27T23:44:31.403Z,8.93
2019-03-27T23:46:57.208Z,9.07
2019-03-27T23:49:22.986Z,9.20
2019-03-27T23:51:48.781Z,8.57
2019-03-27T23:54:14.554Z,9.20
2019-03-27T23:56:40.379Z,9.07
2019-03-27T23:59:06.155Z,10.10
